This is the latest recevied weather packets stored in our database for station/object EA1IOS-11. If no packets are shown the sender has not sent any weather packets the latest 10 day(s).
| Time | Temp. | Humidity | Pressure | Rain* | Wind** | Luminosity | Snow |
|---|---|---|---|---|---|---|---|
| 1777694143 | 15.56° C | 96% | 1016.8 hPa | 0 mm | - | - | - |
| 1777691769 | 15.56° C | 97% | 1017 hPa | 0 mm | - | - | - |
| 1777685767 | 15.56° C | 97% | 1017.5 hPa | 0 mm | - | - | - |
| 1777684547 | 15.56° C | 97% | 1017.4 hPa | 0 mm | - | - | - |
| 1777681570 | 16.11° C | 96% | 1017.7 hPa | 0 mm | - | - | - |
| 1777680356 | 16.11° C | 96% | 1018 hPa | 0 mm | - | - | - |
| 1777677923 | 16.11° C | 96% | 1018.1 hPa | 0 mm | - | - | - |
| 1777676769 | 16.11° C | 95% | 1018.4 hPa | 0 mm | - | - | - |
| 1777674965 | 16.11° C | 95% | 1018.8 hPa | 0 mm | - | - | - |
| 1777673120 | 16.11° C | 94% | 1019 hPa | 0 mm | - | - | - |
| 1777671960 | 16.11° C | 94% | 1019.1 hPa | 0 mm | - | - | - |
| 1777670136 | 16.11° C | 94% | 1019.2 hPa | 0 mm | - | - | - |
| 1777662967 | 16.11° C | 93% | 1018.8 hPa | 0 mm | - | - | - |
| 1777658201 | 17.22° C | 91% | 1018.6 hPa | 0 mm | - | - | - |
| 1777656335 | 17.22° C | 90% | 1018.7 hPa | 0 mm | - | - | - |
| 1777655724 | 17.22° C | 90% | 1018.8 hPa | 0 mm | - | - | - |
| 1777649159 | 18.89° C | 85% | 1018.8 hPa | 0 mm | - | - | - |
| 1777641923 | 19.44° C | 83% | 1019.5 hPa | 0 mm | - | - | - |
| 1777641321 | 19.44° C | 82% | 1019.5 hPa | 0 mm | - | - | - |
| 1777638966 | 18.89° C | 81% | 1019.3 hPa | 0 mm | - | - | - |
| 1777635988 | 18.89° C | 81% | 1019.6 hPa | 0 mm | - | - | - |
| 1777627573 | 17.22° C | 83% | 1020.6 hPa | 0 mm | - | - | - |
| 1777618252 | 13.89° C | 89% | 1020.3 hPa | 0 mm | - | - | - |
| 1777617648 | 13.89° C | 89% | 1020.3 hPa | 0 mm | - | - | - |
| 1777615835 | 13.33° C | 90% | 1020.4 hPa | 0 mm | - | - | - |
* Rain latest hour (hover to see other rain measurements)
** Current wind speed in m/s (hover to see current wind gust speed)